Weather at Dübendorf Air Base

Public forecast

Using degrees Celsius for public forecast. Weather courtesy of forecast.io.

Current aviation weather report (METAR) for Dübendorf Air Base

Retrieved 2020/10/27 10:20 UTC (35 minutes ago):

LSMD 271020Z 28007KT 220V330 9999 SCT025 BKN067 09/04 Q1014 RMK BLU

Aviation forecast (TAF) for Dübendorf Air Base

Retrieved 2020/10/27 10:00 UTC (55 minutes ago):

TAF LSMD 270925Z 2710/2816 VRB03KT 9999 FEW015 SCT050 TEMPO 2712/2720 CAVOK TEMPO 2804/2813 RA PROB30 TEMPO 2808/2812 BKN014